This is the latest recevied weather packets stored in our database for station/object OK1LPD-6. If no packets are shown the sender has not sent any weather packets the latest 10 day(s).
| Time | Temp. | Humidity | Pressure | Rain* | Wind** | Luminosity | Snow |
|---|---|---|---|---|---|---|---|
| 1778002480 | 21.11° C | 50% | 1004.1 hPa | 0 mm | - | - | - |
| 1778001880 | 21.11° C | 50% | 1004.1 hPa | 0 mm | - | - | - |
| 1778001301 | 21.67° C | 49% | 1004.3 hPa | 0 mm | - | - | - |
| 1778000680 | 21.67° C | 48% | 1004.3 hPa | 0 mm | - | - | - |
| 1778000080 | 21.67° C | 47% | 1004.5 hPa | 0 mm | - | - | - |
| 1777999499 | 22.22° C | 46% | 1004.6 hPa | 0 mm | - | - | - |
| 1777998881 | 22.22° C | 45% | 1004.7 hPa | 0 mm | - | - | - |
| 1777998281 | 23.33° C | 40% | 1004.5 hPa | 0 mm | - | - | - |
| 1777997702 | 24.44° C | 36% | 1004.5 hPa | 0 mm | - | - | - |
| 1777997080 | 25° C | 37% | 1004.1 hPa | 0 mm | - | - | - |
| 1777996481 | 25° C | 36% | 1004.1 hPa | 0 mm | - | - | - |
| 1777995897 | 25° C | 36% | 1004.1 hPa | 0 mm | - | - | - |
| 1777995282 | 25.56° C | 33% | 1004.2 hPa | 0 mm | - | - | - |
| 1777994681 | 26.11° C | 31% | 1004.4 hPa | 0 mm | - | - | - |
| 1777994095 | 26.67° C | 31% | 1004.7 hPa | 0 mm | - | - | - |
| 1777993481 | 25.56° C | 33% | 1004.8 hPa | 0 mm | - | - | - |
| 1777992882 | 25.56° C | 34% | 1004.6 hPa | 0 mm | - | - | - |
| 1777992291 | 25.56° C | 35% | 1004.9 hPa | 0 mm | - | - | - |
| 1777991682 | 25° C | 35% | 1004.7 hPa | 0 mm | - | - | - |
| 1777991081 | 25° C | 34% | 1005 hPa | 0 mm | - | - | - |
| 1777990494 | 25° C | 34% | 1005.2 hPa | 0 mm | - | - | - |
| 1777989881 | 25° C | 34% | 1005.3 hPa | 0 mm | - | - | - |
| 1777989282 | 25.56° C | 34% | 1005.4 hPa | 0 mm | - | - | - |
| 1777988693 | 25.56° C | 34% | 1005.4 hPa | 0 mm | - | - | - |
| 1777988082 | 26.11° C | 33% | 1005.5 hPa | 0 mm | - | - | - |
* Rain latest hour (hover to see other rain measurements)
** Current wind speed in m/s (hover to see current wind gust speed)